createdAt,value
2023-01-17T00:02:25.959Z,4.70
2023-01-17T00:05:11.541Z,4.60
2023-01-17T00:07:57.166Z,4.70
2023-01-17T00:10:28.298Z,4.60
2023-01-17T00:13:03.393Z,4.50
2023-01-17T00:15:31.762Z,4.50
2023-01-17T00:18:00.069Z,4.50
2023-01-17T00:20:50.352Z,4.50
2023-01-17T00:23:42.889Z,4.50
2023-01-17T00:26:19.185Z,4.50
2023-01-17T00:28:46.939Z,4.50
2023-01-17T00:31:16.595Z,4.50
2023-01-17T00:33:44.082Z,4.50
2023-01-17T00:36:11.891Z,4.40
2023-01-17T00:38:40.524Z,4.40
2023-01-17T00:41:15.225Z,4.40
2023-01-17T00:44:00.812Z,4.40
2023-01-17T00:46:46.342Z,4.40
2023-01-17T00:49:32.552Z,4.30
2023-01-17T00:52:17.967Z,4.40
2023-01-17T00:55:03.611Z,4.30
2023-01-17T00:57:49.073Z,4.30
2023-01-17T01:00:37.503Z,4.30
2023-01-17T01:03:30.045Z,4.20
2023-01-17T01:06:16.323Z,4.20
2023-01-17T01:09:02.244Z,4.20
2023-01-17T01:11:47.604Z,4.20
2023-01-17T01:14:33.287Z,4.20
2023-01-17T01:17:18.640Z,4.20
2023-01-17T01:20:04.283Z,4.10
2023-01-17T01:22:49.758Z,4.20
2023-01-17T01:25:36.760Z,4.10
2023-01-17T01:28:33.271Z,4.10
2023-01-17T01:31:25.800Z,4.20
2023-01-17T01:33:53.723Z,4.20
2023-01-17T01:36:21.337Z,4.20
2023-01-17T01:38:50.168Z,4.30
2023-01-17T01:41:17.207Z,4.20
2023-01-17T01:43:55.562Z,4.20
2023-01-17T01:46:41.529Z,4.20
2023-01-17T01:49:25.246Z,4.30
2023-01-17T01:52:03.094Z,4.30
2023-01-17T01:55:20.754Z,4.20
2023-01-17T01:57:54.674Z,4.30
2023-01-17T02:10:48.415Z,4.30
2023-01-17T02:13:20.715Z,4.20
2023-01-17T02:16:37.159Z,4.10
2023-01-17T02:24:17.100Z,4.10
2023-01-17T02:31:27.528Z,4.20
2023-01-17T02:34:51.285Z,4.20
2023-01-17T02:37:30.313Z,4.30
2023-01-17T02:40:16.779Z,4.20
2023-01-17T02:42:58.255Z,4.30
2023-01-17T02:45:25.300Z,4.30
2023-01-17T02:47:52.252Z,4.30
2023-01-17T02:50:34.232Z,4.30
2023-01-17T02:53:36.972Z,4.30
2023-01-17T02:56:44.609Z,4.30
2023-01-17T02:59:35.800Z,4.40
2023-01-17T03:02:18.102Z,4.40
2023-01-17T03:05:01.073Z,4.40
2023-01-17T03:07:33.025Z,4.40
2023-01-17T03:10:05.498Z,4.50
2023-01-17T03:12:38.685Z,4.40
2023-01-17T03:15:16.028Z,4.40
2023-01-17T03:17:50.837Z,4.40
2023-01-17T03:20:18.034Z,4.40
2023-01-17T03:22:45.029Z,4.40
2023-01-17T03:25:12.259Z,4.40
2023-01-17T03:27:39.195Z,4.40
2023-01-17T03:30:07.566Z,4.50
2023-01-17T03:32:34.818Z,4.50
2023-01-17T03:35:02.007Z,4.50
2023-01-17T03:37:29.004Z,4.50
2023-01-17T03:39:55.978Z,4.50
2023-01-17T03:42:22.953Z,4.50
2023-01-17T03:44:49.951Z,4.50
2023-01-17T03:47:16.923Z,4.50
2023-01-17T03:49:43.861Z,4.50
2023-01-17T03:52:10.996Z,4.50
2023-01-17T03:54:41.372Z,4.50
2023-01-17T03:57:08.670Z,4.50
2023-01-17T03:59:35.792Z,4.50
2023-01-17T04:02:02.992Z,4.50
2023-01-17T04:04:30.127Z,4.50
2023-01-17T04:06:58.501Z,4.50
2023-01-17T04:09:25.500Z,4.50
2023-01-17T04:11:53.347Z,4.50
2023-01-17T04:14:20.358Z,4.50
2023-01-17T04:16:47.467Z,4.60
2023-01-17T04:19:14.769Z,4.50
2023-01-17T04:21:41.837Z,4.50
2023-01-17T04:24:08.954Z,4.70
2023-01-17T04:26:36.176Z,4.60
2023-01-17T04:29:03.977Z,4.60
2023-01-17T04:31:31.138Z,4.60
2023-01-17T04:33:58.101Z,4.60
2023-01-17T04:36:25.237Z,4.60
2023-01-17T04:38:52.161Z,4.70
2023-01-17T04:41:19.136Z,4.60
2023-01-17T04:43:46.176Z,4.60
2023-01-17T04:46:13.257Z,4.60
2023-01-17T04:48:40.251Z,4.60
2023-01-17T04:51:07.191Z,4.60
2023-01-17T04:53:34.201Z,4.60
2023-01-17T04:56:01.822Z,4.60
2023-01-17T04:58:29.267Z,4.70
2023-01-17T05:01:00.489Z,4.70
2023-01-17T05:03:28.074Z,4.70
2023-01-17T05:05:55.017Z,4.80
2023-01-17T05:08:22.041Z,4.70
2023-01-17T05:10:49.068Z,4.70
2023-01-17T05:13:16.262Z,4.80
2023-01-17T05:15:43.724Z,4.70
2023-01-17T05:18:18.837Z,4.70
2023-01-17T05:20:46.164Z,4.70
2023-01-17T05:23:13.241Z,4.70
2023-01-17T05:25:44.148Z,4.80
2023-01-17T05:28:15.061Z,4.80
2023-01-17T05:30:42.402Z,4.80
2023-01-17T05:33:10.448Z,4.80
2023-01-17T05:35:38.441Z,4.90
2023-01-17T05:38:05.642Z,4.90
2023-01-17T05:40:34.158Z,4.90
2023-01-17T05:43:03.871Z,4.90
2023-01-17T05:45:33.533Z,4.90
2023-01-17T05:48:01.566Z,4.90
2023-01-17T05:50:37.781Z,5.00
2023-01-17T05:53:15.730Z,5.00
2023-01-17T05:55:44.208Z,4.90
2023-01-17T05:58:19.886Z,5.00
2023-01-17T06:00:47.958Z,5.00
2023-01-17T06:03:16.260Z,5.00
2023-01-17T06:05:46.593Z,4.90
2023-01-17T06:08:16.544Z,4.90
2023-01-17T06:10:44.071Z,4.90
2023-01-17T06:13:16.609Z,4.90
2023-01-17T06:15:43.572Z,4.90
2023-01-17T06:18:17.907Z,4.80
2023-01-17T06:20:45.453Z,4.80
2023-01-17T06:23:14.938Z,4.90
2023-01-17T06:25:46.552Z,5.00
2023-01-17T06:28:21.218Z,4.90
2023-01-17T06:30:49.672Z,4.90
2023-01-17T06:33:17.406Z,4.80
2023-01-17T06:35:53.562Z,4.80
2023-01-17T06:38:21.428Z,4.90
2023-01-17T06:40:50.850Z,4.90
2023-01-17T06:43:17.967Z,4.90
2023-01-17T06:45:45.113Z,4.90
2023-01-17T06:48:12.519Z,4.90
2023-01-17T06:50:39.518Z,4.90
2023-01-17T06:53:07.912Z,4.90
2023-01-17T06:55:39.491Z,4.80
2023-01-17T06:58:06.758Z,4.80
2023-01-17T07:00:39.577Z,4.90
2023-01-17T07:03:23.322Z,4.90
2023-01-17T07:05:51.394Z,4.90
2023-01-17T07:08:20.422Z,4.90
2023-01-17T07:10:48.976Z,4.80
2023-01-17T07:13:15.912Z,4.80
2023-01-17T07:15:43.043Z,4.70
2023-01-17T07:18:10.030Z,4.80
2023-01-17T07:20:38.321Z,4.80
2023-01-17T07:23:06.674Z,4.70
2023-01-17T07:25:33.733Z,4.80
2023-01-17T07:28:00.807Z,4.80
2023-01-17T07:30:27.933Z,4.70
2023-01-17T07:32:55.734Z,4.70
2023-01-17T07:35:28.165Z,4.70
2023-01-17T07:37:55.308Z,4.70
2023-01-17T07:40:24.379Z,4.70
2023-01-17T07:42:51.683Z,4.80
2023-01-17T07:45:19.875Z,4.60
2023-01-17T07:47:47.230Z,4.70
2023-01-17T07:50:14.281Z,4.60
2023-01-17T07:52:41.728Z,4.70
2023-01-17T07:55:09.902Z,4.70
2023-01-17T07:57:37.141Z,4.70
2023-01-17T08:00:05.919Z,4.70
2023-01-17T08:02:33.029Z,4.70
2023-01-17T08:05:00.127Z,4.60
2023-01-17T08:07:29.661Z,4.60
2023-01-17T08:09:56.679Z,4.60
2023-01-17T08:12:25.911Z,4.70
2023-01-17T08:14:54.742Z,4.60
2023-01-17T08:17:24.537Z,4.70
2023-01-17T08:19:53.184Z,4.70
2023-01-17T08:22:20.306Z,4.80
2023-01-17T08:24:47.507Z,4.90
2023-01-17T08:27:15.348Z,4.70
2023-01-17T08:29:46.872Z,4.70
2023-01-17T08:32:15.724Z,4.70
2023-01-17T08:34:42.898Z,4.70
2023-01-17T08:37:09.807Z,4.70
2023-01-17T08:39:39.773Z,4.80
2023-01-17T08:42:07.128Z,4.80
2023-01-17T08:44:34.282Z,4.90
2023-01-17T08:47:01.946Z,4.80
2023-01-17T08:49:29.068Z,4.90
2023-01-17T08:51:56.562Z,4.90
2023-01-17T08:54:23.867Z,4.80
2023-01-17T08:56:52.697Z,4.90
2023-01-17T08:59:19.719Z,4.90
2023-01-17T09:01:46.726Z,4.90
2023-01-17T09:04:15.267Z,4.90
2023-01-17T09:06:48.384Z,4.90
2023-01-17T09:09:18.824Z,5.00
2023-01-17T09:11:45.764Z,5.10
2023-01-17T09:14:14.095Z,5.20
2023-01-17T09:16:41.440Z,5.60
2023-01-17T09:19:10.126Z,5.60
2023-01-17T09:21:37.048Z,5.60
2023-01-17T09:24:04.506Z,6.10
2023-01-17T09:26:31.792Z,6.10
2023-01-17T09:28:58.802Z,5.90
2023-01-17T09:31:27.660Z,5.80
2023-01-17T09:34:08.793Z,5.70
2023-01-17T09:36:35.899Z,5.70
2023-01-17T09:39:04.811Z,5.70
2023-01-17T09:41:38.623Z,5.50
2023-01-17T09:44:38.148Z,5.50
2023-01-17T09:47:40.299Z,5.60
2023-01-17T09:50:44.651Z,5.40
2023-01-17T09:53:21.406Z,5.50
2023-01-17T09:56:06.478Z,5.40
2023-01-17T09:59:09.114Z,5.40
2023-01-17T10:02:17.912Z,5.40
2023-01-17T10:05:19.113Z,5.40
2023-01-17T10:08:23.522Z,5.70
2023-01-17T10:11:15.489Z,6.10
2023-01-17T10:14:38.011Z,5.50
2023-01-17T10:17:38.649Z,5.30
2023-01-17T10:20:17.468Z,5.30
2023-01-17T10:23:09.805Z,5.50
2023-01-17T10:25:52.543Z,5.30
2023-01-17T10:28:51.281Z,5.10
2023-01-17T10:31:34.184Z,5.20
2023-01-17T10:34:23.180Z,5.10
2023-01-17T10:37:14.828Z,4.90
2023-01-17T10:39:47.529Z,5.00
2023-01-17T10:42:30.830Z,4.90
2023-01-17T10:45:28.867Z,4.90
2023-01-17T10:48:33.259Z,5.00
2023-01-17T10:51:44.136Z,5.00
2023-01-17T10:54:44.725Z,4.90
2023-01-17T10:57:23.012Z,4.90
2023-01-17T10:59:52.120Z,4.90
2023-01-17T11:02:49.497Z,4.90
2023-01-17T11:05:32.823Z,4.90
2023-01-17T11:08:11.811Z,4.90
2023-01-17T11:10:51.029Z,5.00
2023-01-17T11:13:38.820Z,4.70
2023-01-17T11:16:18.610Z,4.60
2023-01-17T11:18:45.959Z,4.50
2023-01-17T11:21:25.360Z,4.50
2023-01-17T11:23:57.411Z,4.30
2023-01-17T11:26:31.511Z,4.20
2023-01-17T11:29:40.303Z,4.40
2023-01-17T11:32:31.087Z,4.20
2023-01-17T11:35:16.707Z,4.10
2023-01-17T11:38:19.147Z,3.80
2023-01-17T11:40:49.651Z,3.50
2023-01-17T11:43:27.987Z,3.70
2023-01-17T11:46:22.447Z,3.70
2023-01-17T11:49:00.231Z,3.80
2023-01-17T11:51:35.324Z,4.10
2023-01-17T11:54:30.259Z,4.20
2023-01-17T11:57:01.564Z,4.20
2023-01-17T11:59:37.659Z,4.20
2023-01-17T12:02:51.504Z,4.40
2023-01-17T12:06:08.468Z,4.30
2023-01-17T12:09:15.870Z,4.30
2023-01-17T12:12:51.994Z,4.40
2023-01-17T12:15:52.244Z,4.60
2023-01-17T12:19:01.063Z,4.80
2023-01-17T12:22:17.862Z,4.90
2023-01-17T12:25:01.784Z,4.90
2023-01-17T12:28:29.788Z,4.70
2023-01-17T12:31:07.171Z,4.80
2023-01-17T12:33:54.642Z,5.00
2023-01-17T12:36:52.702Z,5.00
2023-01-17T12:39:36.255Z,4.90
2023-01-17T12:42:30.877Z,4.80
2023-01-17T12:45:32.496Z,4.90
2023-01-17T12:48:15.889Z,5.00
2023-01-17T12:51:00.840Z,5.00
2023-01-17T12:54:18.190Z,4.90
2023-01-17T12:56:59.441Z,5.00
2023-01-17T13:00:04.828Z,4.90
2023-01-17T13:03:27.436Z,4.90
2023-01-17T13:05:59.734Z,5.00
2023-01-17T13:09:02.613Z,4.90
2023-01-17T13:11:57.653Z,5.10
2023-01-17T13:14:24.786Z,5.00
2023-01-17T13:17:02.835Z,5.10
2023-01-17T13:19:50.463Z,5.20
2023-01-17T13:22:21.928Z,5.40
2023-01-17T13:25:00.304Z,5.30
2023-01-17T13:27:54.368Z,5.60
2023-01-17T13:31:10.870Z,5.50
2023-01-17T13:34:17.308Z,5.40
2023-01-17T13:37:38.420Z,5.50
2023-01-17T13:40:29.385Z,5.40
2023-01-17T13:43:02.280Z,5.50
2023-01-17T13:45:36.217Z,5.50
2023-01-17T13:48:12.484Z,5.40
2023-01-17T13:50:58.505Z,5.60
2023-01-17T13:53:34.567Z,5.50
2023-01-17T13:56:19.387Z,5.50
2023-01-17T13:58:59.072Z,5.50
2023-01-17T14:01:40.907Z,5.50
2023-01-17T14:04:15.264Z,5.60
2023-01-17T14:06:55.565Z,5.70
2023-01-17T14:09:41.255Z,5.50
2023-01-17T14:12:11.330Z,5.30
2023-01-17T14:14:44.448Z,5.40
2023-01-17T14:17:37.213Z,5.50
2023-01-17T14:20:10.197Z,5.50
2023-01-17T14:22:51.322Z,5.30
2023-01-17T14:25:41.975Z,5.20
2023-01-17T14:28:29.238Z,5.40
2023-01-17T14:31:00.969Z,5.40
2023-01-17T14:33:47.705Z,5.10
2023-01-17T14:36:29.539Z,5.00
2023-01-17T14:38:56.751Z,4.90
2023-01-17T14:41:29.633Z,5.00
2023-01-17T14:44:11.038Z,5.00
2023-01-17T14:46:38.095Z,5.20
2023-01-17T14:49:27.110Z,5.40
2023-01-17T14:52:07.620Z,5.40
2023-01-17T14:54:34.888Z,5.30
2023-01-17T14:57:34.688Z,5.60
2023-01-17T15:00:30.985Z,5.50
2023-01-17T15:03:02.189Z,5.60
2023-01-17T15:05:30.283Z,5.50
2023-01-17T15:07:59.525Z,5.40
2023-01-17T15:10:52.198Z,5.30
2023-01-17T15:13:44.705Z,5.20
2023-01-17T15:16:26.429Z,5.30
2023-01-17T15:18:59.372Z,5.30
2023-01-17T15:21:42.536Z,5.40
2023-01-17T15:24:31.988Z,5.30
2023-01-17T15:27:00.119Z,5.10
2023-01-17T15:29:35.825Z,5.10
2023-01-17T15:32:31.326Z,5.00
2023-01-17T15:35:03.644Z,5.00
2023-01-17T15:37:39.947Z,5.10
2023-01-17T15:40:20.640Z,5.10
2023-01-17T15:42:51.632Z,5.20
2023-01-17T15:45:28.910Z,5.40
2023-01-17T15:48:44.861Z,4.90
2023-01-17T15:51:13.866Z,4.70
2023-01-17T15:54:01.174Z,4.50
2023-01-17T15:56:45.518Z,4.30
2023-01-17T15:59:52.052Z,4.20
2023-01-17T16:02:43.184Z,4.20
2023-01-17T16:05:44.080Z,4.20
2023-01-17T16:08:11.035Z,4.10
2023-01-17T16:10:42.060Z,4.10
2023-01-17T16:13:19.244Z,4.00
2023-01-17T16:15:46.445Z,3.90
2023-01-17T16:18:26.530Z,3.90
2023-01-17T16:21:08.425Z,3.80
2023-01-17T16:23:37.472Z,3.90
2023-01-17T16:26:05.779Z,3.70
2023-01-17T16:28:33.055Z,3.60
2023-01-17T16:31:03.279Z,3.80
2023-01-17T16:33:30.394Z,3.70
2023-01-17T16:36:03.422Z,3.70
2023-01-17T16:38:32.139Z,3.80
2023-01-17T16:40:59.192Z,3.80
2023-01-17T16:43:26.293Z,3.80
2023-01-17T16:45:55.514Z,3.60
2023-01-17T16:48:22.827Z,3.50
2023-01-17T16:50:58.743Z,3.40
2023-01-17T16:53:28.635Z,3.20
2023-01-17T16:56:07.813Z,3.20
2023-01-17T16:58:34.931Z,3.20
2023-01-17T17:01:09.252Z,3.20
2023-01-17T17:03:36.365Z,3.10
2023-01-17T17:06:06.752Z,3.10
2023-01-17T17:08:37.069Z,3.10
2023-01-17T17:11:15.261Z,3.00
2023-01-17T17:13:49.264Z,3.20
2023-01-17T17:16:30.047Z,3.20
2023-01-17T17:19:04.118Z,3.10
2023-01-17T17:21:34.534Z,3.00
2023-01-17T17:24:02.488Z,3.00
2023-01-17T17:26:37.487Z,2.90
2023-01-17T17:29:10.392Z,3.10
2023-01-17T17:31:40.684Z,2.90
2023-01-17T17:34:12.354Z,2.70
2023-01-17T17:36:39.852Z,2.40
2023-01-17T17:39:13.443Z,2.40
2023-01-17T17:41:44.764Z,2.30
2023-01-17T17:44:12.905Z,2.50
2023-01-17T17:46:42.919Z,2.70
2023-01-17T17:49:10.063Z,2.60
2023-01-17T17:51:40.063Z,2.60
2023-01-17T17:54:12.221Z,2.50
2023-01-17T17:56:40.471Z,2.40
2023-01-17T17:59:09.807Z,2.40
2023-01-17T18:01:40.979Z,2.40
2023-01-17T18:04:11.543Z,2.50
2023-01-17T18:06:40.283Z,2.50
2023-01-17T18:09:10.203Z,2.30
2023-01-17T18:11:41.801Z,2.10
2023-01-17T18:14:14.553Z,2.20
2023-01-17T18:16:44.824Z,2.10
2023-01-17T18:19:17.971Z,2.20
2023-01-17T18:21:45.838Z,2.40
2023-01-17T18:24:18.391Z,2.50
2023-01-17T18:26:53.118Z,2.70
2023-01-17T18:29:22.591Z,3.00
2023-01-17T18:31:52.196Z,2.90
2023-01-17T18:34:29.074Z,2.80
2023-01-17T18:36:57.126Z,2.50
2023-01-17T18:39:29.235Z,2.30
2023-01-17T18:41:59.511Z,2.20
2023-01-17T18:44:27.486Z,1.90
2023-01-17T18:46:58.031Z,1.90
2023-01-17T18:49:25.224Z,1.90
2023-01-17T18:51:52.160Z,2.00
2023-01-17T18:54:20.592Z,2.00
2023-01-17T18:56:48.259Z,2.10
2023-01-17T18:59:21.429Z,2.20
2023-01-17T19:01:48.533Z,2.20
2023-01-17T19:04:17.418Z,2.50
2023-01-17T19:06:48.134Z,2.40
2023-01-17T19:09:18.371Z,2.20
2023-01-17T19:11:47.273Z,2.20
2023-01-17T19:14:15.767Z,2.20
2023-01-17T19:16:46.070Z,2.20
2023-01-17T19:19:15.726Z,2.20
2023-01-17T19:21:43.445Z,2.10
2023-01-17T19:24:13.397Z,2.00
2023-01-17T19:26:44.420Z,2.00
2023-01-17T19:29:15.158Z,2.10
2023-01-17T19:31:44.856Z,2.30
2023-01-17T19:34:19.591Z,2.40
2023-01-17T19:36:50.619Z,2.40
2023-01-17T19:39:17.563Z,2.40
2023-01-17T19:41:46.005Z,2.50
2023-01-17T19:44:15.121Z,2.40
2023-01-17T19:46:51.067Z,2.40
2023-01-17T19:49:23.758Z,2.20
2023-01-17T19:51:51.947Z,2.10
2023-01-17T19:54:19.277Z,1.90
2023-01-17T19:56:46.284Z,1.90
2023-01-17T19:59:20.008Z,2.00
2023-01-17T20:01:50.269Z,1.90
2023-01-17T20:04:18.685Z,1.80
2023-01-17T20:06:46.834Z,2.20
2023-01-17T20:09:13.879Z,2.40
2023-01-17T20:11:45.546Z,2.20
2023-01-17T20:14:16.501Z,2.20
2023-01-17T20:16:47.298Z,2.20
2023-01-17T20:19:17.171Z,2.50
2023-01-17T20:21:47.111Z,2.40
2023-01-17T20:24:14.477Z,2.30
2023-01-17T20:26:41.699Z,2.20
2023-01-17T20:29:17.143Z,2.10
2023-01-17T20:31:46.139Z,2.10
2023-01-17T20:34:19.484Z,2.10
2023-01-17T20:36:48.122Z,2.20
2023-01-17T20:39:16.023Z,2.10
2023-01-17T20:41:46.239Z,2.00
2023-01-17T20:44:16.554Z,1.90
2023-01-17T20:46:44.186Z,1.90
2023-01-17T20:49:17.130Z,1.90
2023-01-17T20:51:46.419Z,1.80
2023-01-17T20:54:23.568Z,2.10
2023-01-17T20:56:51.349Z,2.10
2023-01-17T20:59:22.896Z,2.10
2023-01-17T21:01:51.715Z,2.10
2023-01-17T21:04:25.882Z,2.10
2023-01-17T21:06:58.775Z,2.10
2023-01-17T21:09:27.856Z,2.10
2023-01-17T21:12:03.969Z,2.00
2023-01-17T21:14:31.248Z,1.90
2023-01-17T21:16:58.568Z,1.90
2023-01-17T21:19:25.703Z,1.80
2023-01-17T21:21:52.675Z,1.70
2023-01-17T21:24:20.087Z,1.80
2023-01-17T21:26:47.508Z,1.80
2023-01-17T21:29:15.992Z,1.70
2023-01-17T21:31:43.569Z,1.50
2023-01-17T21:34:13.762Z,1.50
2023-01-17T21:36:43.176Z,1.60
2023-01-17T21:39:16.655Z,1.50
2023-01-17T21:41:49.460Z,1.60
2023-01-17T21:44:26.049Z,1.60
2023-01-17T21:46:55.976Z,1.60
2023-01-17T21:49:23.773Z,1.40
2023-01-17T21:51:53.705Z,1.50
2023-01-17T21:54:45.146Z,1.50
2023-01-17T21:57:39.445Z,1.50
2023-01-17T22:00:15.642Z,1.30
2023-01-17T22:02:48.461Z,1.40
2023-01-17T22:05:16.850Z,1.30
2023-01-17T22:08:03.933Z,1.20
2023-01-17T22:10:34.509Z,1.20
2023-01-17T22:13:01.499Z,1.30
2023-01-17T22:15:28.570Z,1.30
2023-01-17T22:17:55.819Z,1.30
2023-01-17T22:20:23.992Z,1.20
2023-01-17T22:22:50.888Z,1.30
2023-01-17T22:25:17.856Z,1.30
2023-01-17T22:27:44.766Z,1.40
2023-01-17T22:30:13.200Z,1.40
2023-01-17T22:32:45.426Z,1.30
2023-01-17T22:35:18.469Z,1.10
2023-01-17T22:37:45.395Z,1.00
2023-01-17T22:40:13.233Z,1.00
2023-01-17T22:42:40.462Z,1.10
2023-01-17T22:45:10.163Z,1.20
2023-01-17T22:47:38.310Z,1.00
2023-01-17T22:50:09.764Z,1.20
2023-01-17T22:52:36.628Z,1.20
2023-01-17T22:55:05.181Z,1.30
2023-01-17T22:57:35.575Z,1.40
2023-01-17T23:00:02.585Z,1.40
2023-01-17T23:02:29.581Z,1.30
2023-01-17T23:04:56.574Z,1.40
2023-01-17T23:07:26.447Z,1.30
2023-01-17T23:09:53.593Z,1.40
2023-01-17T23:12:20.492Z,1.60
2023-01-17T23:15:06.443Z,1.80
2023-01-17T23:17:51.888Z,1.90
2023-01-17T23:20:18.897Z,2.10
2023-01-17T23:22:45.868Z,2.30
2023-01-17T23:25:14.189Z,2.30
2023-01-17T23:28:05.349Z,2.30
2023-01-17T23:30:40.559Z,2.30
2023-01-17T23:33:17.008Z,2.30
2023-01-17T23:35:46.564Z,2.10
2023-01-17T23:38:37.461Z,1.80
2023-01-17T23:41:28.625Z,1.60
2023-01-17T23:43:58.682Z,1.50
2023-01-17T23:46:27.208Z,1.60
2023-01-17T23:48:55.071Z,1.70
2023-01-17T23:51:22.377Z,1.90
2023-01-17T23:53:50.895Z,2.00
2023-01-17T23:56:23.520Z,2.20
2023-01-17T23:58:50.766Z,2.30
